Time;durP1;ratioP1;P1;durP2;ratioP2;P2;SDS_P1;SDS_P2;PMS_P1;PMS_P2;Temp;Humidity;BMP_temperature;BMP_pressure;BME280_temperature;BME280_humidity;BME280_pressure;Samples;Min_cycle;Max_cycle;Signal;HPM_P1;HPM_P2
2024/04/21 00:01:03;;;;;;;8.03;6.00;;;;;;;;;;1729569;83;35282;-59
2024/04/21 00:03:31;;;;;;;11.10;6.62;;;;;;;;;;1761440;81;25486;-59
2024/04/21 00:05:57;;;;;;;11.90;6.20;;;;;;;;;;1753921;81;27854;-57
2024/04/21 00:08:23;;;;;;;9.75;5.97;;;;;;;;;;1729506;83;32784;-57
2024/04/21 00:10:48;;;;;;;8.80;6.80;;;;;;;;;;1761466;81;29998;-58
2024/04/21 00:13:14;;;;;;;10.18;6.55;;;;;;;;;;1753847;81;35148;-58
2024/04/21 00:15:40;;;;;;;9.63;6.67;;;;;;;;;;1729637;83;25449;-58
2024/04/21 00:18:06;;;;;;;8.80;5.97;;;;;;;;;;1761397;81;27894;-57
2024/04/21 00:20:32;;;;;;;9.28;6.10;;;;;;;;;;1761314;81;25467;-56
2024/04/21 00:26:24;;;;;;;10.28;6.47;;;;;;;;;;1710058;82;25753;-58
2024/04/21 00:28:50;;;;;;;8.90;6.80;;;;;;;;;;1746678;82;25443;-58
2024/04/21 00:31:16;;;;;;;8.50;6.05;;;;;;;;;;1746945;81;27537;-58
2024/04/21 00:33:43;;;;;;;7.50;6.08;;;;;;;;;;1746865;82;25613;-58
2024/04/21 00:36:08;;;;;;;9.48;5.83;;;;;;;;;;1727481;83;29590;-57
2024/04/21 00:38:34;;;;;;;8.80;5.83;;;;;;;;;;1746640;82;35251;-58
2024/04/21 00:41:00;;;;;;;9.25;5.58;;;;;;;;;;1715384;83;32260;-59
2024/04/21 00:43:26;;;;;;;8.33;5.37;;;;;;;;;;1746695;82;27636;-58
2024/04/21 00:45:52;;;;;;;9.68;6.65;;;;;;;;;;1746841;82;32874;-59
2024/04/21 00:48:19;;;;;;;7.08;5.33;;;;;;;;;;1746936;81;25557;-57
2024/04/21 00:50:48;;;;;;;7.37;5.12;;;;;;;;;;1727449;83;25638;-58
2024/04/21 00:53:17;;;;;;;6.87;4.72;;;;;;;;;;1746707;82;25555;-58
2024/04/21 00:55:43;;;;;;;5.85;4.67;;;;;;;;;;1715501;83;32749;-55
2024/04/21 00:58:11;;;;;;;7.03;5.00;;;;;;;;;;1746540;82;25452;-56
2024/04/21 01:00:37;;;;;;;6.40;5.37;;;;;;;;;;1746948;82;25456;-57
2024/04/21 01:03:04;;;;;;;7.65;4.60;;;;;;;;;;1746820;82;25566;-58
2024/04/21 01:05:31;;;;;;;6.37;4.95;;;;;;;;;;1746968;81;25621;-58
2024/04/21 01:07:57;;;;;;;8.18;4.47;;;;;;;;;;1746904;82;27610;-58
2024/04/21 01:10:22;;;;;;;8.85;4.92;;;;;;;;;;1746830;82;33304;-57
2024/04/21 01:12:48;;;;;;;5.80;4.70;;;;;;;;;;1727467;83;29626;-57
2024/04/21 01:15:15;;;;;;;5.92;4.40;;;;;;;;;;1746610;82;35179;-57
2024/04/21 01:17:41;;;;;;;9.13;5.17;;;;;;;;;;1715373;83;25579;-58
2024/04/21 01:20:12;;;;;;;6.15;4.45;;;;;;;;;;1746642;82;27628;-56
2024/04/21 01:22:45;;;;;;;5.58;4.55;;;;;;;;;;1746816;81;25482;-59
2024/04/21 01:25:11;;;;;;;4.60;4.00;;;;;;;;;;1746913;82;25396;-58
2024/04/21 01:27:37;;;;;;;42.60;39.57;;;;;;;;;;1731149;82;32367;-54
2024/04/21 01:30:04;;;;;;;9.03;4.70;;;;;;;;;;1761326;81;32370;-58
2024/04/21 01:32:30;;;;;;;7.20;5.00;;;;;;;;;;1761344;81;27569;-57
2024/04/21 01:34:56;;;;;;;9.63;4.62;;;;;;;;;;1761323;81;25446;-57
2024/04/21 01:37:22;;;;;;;8.05;5.37;;;;;;;;;;1753810;81;29690;-57
2024/04/21 01:39:48;;;;;;;6.40;5.10;;;;;;;;;;1702468;83;35122;-58
2024/04/21 01:42:14;;;;;;;8.78;5.37;;;;;;;;;;1761341;81;32278;-57
2024/04/21 01:44:40;;;;;;;7.62;5.05;;;;;;;;;;1753815;81;27526;-57
2024/04/21 01:47:06;;;;;;;5.37;4.78;;;;;;;;;;1729414;83;25860;-59
2024/04/21 01:49:32;;;;;;;7.70;4.92;;;;;;;;;;1761363;81;29715;-59
2024/04/21 01:51:58;;;;;;;6.00;5.00;;;;;;;;;;1753753;81;34644;-57
2024/04/21 01:54:24;;;;;;;5.42;4.87;;;;;;;;;;1729545;83;32713;-59
2024/04/21 01:56:50;;;;;;;8.65;4.90;;;;;;;;;;1761349;81;27555;-56
2024/04/21 01:59:16;;;;;;;7.47;5.00;;;;;;;;;;1753719;81;32800;-58
2024/04/21 02:01:41;;;;;;;8.25;5.40;;;;;;;;;;1729454;83;29574;-57
2024/04/21 02:04:07;;;;;;;6.10;4.65;;;;;;;;;;1761303;81;35127;-59
2024/04/21 02:06:35;;;;;;;5.75;4.78;;;;;;;;;;1753855;81;32289;-57
2024/04/21 02:09:01;;;;;;;6.25;4.97;;;;;;;;;;1729592;83;27523;-57
2024/04/21 02:11:28;;;;;;;8.18;5.55;;;;;;;;;;1761270;81;25641;-58
2024/04/21 02:13:54;;;;;;;10.93;5.50;;;;;;;;;;1753817;81;25467;-58
2024/04/21 02:16:19;;;;;;;6.67;5.12;;;;;;;;;;1729442;83;34640;-55
2024/04/21 02:18:45;;;;;;;5.70;4.30;;;;;;;;;;1761378;81;32212;-59
2024/04/21 02:21:12;;;;;;;8.43;4.58;;;;;;;;;;1753805;81;27625;-58
2024/04/21 02:23:38;;;;;;;7.92;4.95;;;;;;;;;;1729380;83;25619;-58
2024/04/21 02:26:04;;;;;;;7.12;4.95;;;;;;;;;;1761321;81;25563;-59
2024/04/21 02:28:30;;;;;;;8.48;5.65;;;;;;;;;;1744346;81;35057;-59
2024/04/21 02:30:56;;;;;;;8.83;5.67;;;;;;;;;;1739180;82;25558;-58
2024/04/21 02:33:24;;;;;;;8.10;4.90;;;;;;;;;;1739194;82;28144;-59
2024/04/21 02:35:50;;;;;;;6.72;5.17;;;;;;;;;;1739123;82;25467;-59
2024/04/21 02:38:17;;;;;;;8.73;4.70;;;;;;;;;;1739174;82;25426;-59
2024/04/21 02:40:43;;;;;;;8.40;5.33;;;;;;;;;;1739123;82;25519;-59
2024/04/21 02:43:09;;;;;;;7.47;5.15;;;;;;;;;;1739206;82;25474;-58
2024/04/21 02:45:35;;;;;;;8.30;5.12;;;;;;;;;;1739167;82;28110;-59
2024/04/21 02:48:01;;;;;;;7.62;4.58;;;;;;;;;;1739199;82;33120;-59
2024/04/21 02:50:26;;;;;;;12.13;5.42;;;;;;;;;;1739338;82;29676;-59
2024/04/21 02:52:53;;;;;;;9.45;5.25;;;;;;;;;;1739298;82;35260;-59
2024/04/21 02:55:20;;;;;;;7.28;4.95;;;;;;;;;;1739366;82;25567;-56
2024/04/21 02:57:46;;;;;;;5.80;5.05;;;;;;;;;;1739414;82;27713;-56
2024/04/21 03:00:13;;;;;;;7.78;4.78;;;;;;;;;;1739317;82;33306;-59
2024/04/21 03:02:39;;;;;;;6.30;4.85;;;;;;;;;;1739297;82;25604;-59
2024/04/21 03:05:06;;;;;;;7.78;4.85;;;;;;;;;;1739318;82;25667;-58
2024/04/21 03:07:32;;;;;;;8.50;4.95;;;;;;;;;;1739357;82;25575;-59
2024/04/21 03:09:57;;;;;;;7.22;5.30;;;;;;;;;;1739332;82;27473;-59
2024/04/21 03:12:23;;;;;;;8.73;4.90;;;;;;;;;;1739243;82;32818;-59
2024/04/21 03:14:49;;;;;;;7.08;4.90;;;;;;;;;;1739310;82;29608;-59
2024/04/21 03:17:16;;;;;;;8.03;5.65;;;;;;;;;;1739277;82;34728;-59
2024/04/21 03:19:42;;;;;;;8.40;5.80;;;;;;;;;;1739354;82;25567;-60
2024/04/21 03:22:08;;;;;;;6.72;5.30;;;;;;;;;;1739266;82;27552;-59
2024/04/21 03:24:34;;;;;;;6.17;4.72;;;;;;;;;;1739283;82;32909;-56
2024/04/21 03:26:59;;;;;;;10.20;5.00;;;;;;;;;;1739279;82;29852;-59
2024/04/21 03:29:25;;;;;;;9.25;5.47;;;;;;;;;;1752239;81;35201;-60
2024/04/21 03:31:51;;;;;;;6.60;5.35;;;;;;;;;;1729629;83;32190;-59
2024/04/21 03:34:17;;;;;;;7.20;5.30;;;;;;;;;;1761419;81;28146;-59
2024/04/21 03:36:43;;;;;;;6.58;5.37;;;;;;;;;;1753814;81;32783;-59
2024/04/21 03:39:09;;;;;;;7.62;5.60;;;;;;;;;;1701354;83;30016;-60
2024/04/21 03:41:35;;;;;;;8.05;5.47;;;;;;;;;;1761400;81;34749;-60
2024/04/21 03:44:01;;;;;;;7.58;5.40;;;;;;;;;;1753890;81;32571;-56
2024/04/21 03:46:27;;;;;;;10.78;5.90;;;;;;;;;;1729600;83;27484;-59
2024/04/21 03:48:53;;;;;;;8.75;5.65;;;;;;;;;;1761356;81;32835;-60
2024/04/21 03:51:19;;;;;;;7.85;5.83;;;;;;;;;;1753904;81;25408;-60
2024/04/21 03:53:45;;;;;;;6.85;5.37;;;;;;;;;;1729572;83;34844;-60
2024/04/21 03:56:11;;;;;;;11.60;5.37;;;;;;;;;;1761441;81;32210;-57
2024/04/21 03:58:37;;;;;;;10.10;5.20;;;;;;;;;;1753888;81;27152;-60
2024/04/21 04:01:03;;;;;;;6.62;4.95;;;;;;;;;;1729521;83;25644;-60
2024/04/21 04:03:29;;;;;;;6.20;5.10;;;;;;;;;;1761392;81;25418;-60
2024/04/21 04:05:55;;;;;;;9.48;6.05;;;;;;;;;;1753856;81;34790;-59
2024/04/21 04:08:21;;;;;;;8.25;4.70;;;;;;;;;;1729606;83;32280;-60
2024/04/21 04:10:47;;;;;;;7.90;4.97;;;;;;;;;;1761404;81;28184;-60
2024/04/21 04:13:13;;;;;;;6.65;5.08;;;;;;;;;;1761288;81;25410;-58
2024/04/21 04:15:39;;;;;;;10.15;6.20;;;;;;;;;;1753879;81;29660;-60
2024/04/21 04:18:06;;;;;;;11.97;6.00;;;;;;;;;;1729524;83;35128;-60
2024/04/21 04:20:33;;;;;;;9.53;6.08;;;;;;;;;;1761443;81;25404;-60
2024/04/21 04:22:59;;;;;;;10.08;5.90;;;;;;;;;;1753820;81;27411;-60
2024/04/21 04:25:26;;;;;;;11.90;6.05;;;;;;;;;;1729490;83;25613;-59
2024/04/21 04:27:53;;;;;;;9.78;6.40;;;;;;;;;;1761280;81;25600;-59
2024/04/21 04:30:19;;;;;;;11.08;6.53;;;;;;;;;;1761389;81;25626;-59
2024/04/21 04:32:45;;;;;;;9.58;6.03;;;;;;;;;;1753904;81;32643;-60
2024/04/21 04:35:11;;;;;;;9.50;5.87;;;;;;;;;;1729569;83;27593;-60
2024/04/21 04:37:37;;;;;;;9.88;6.10;;;;;;;;;;1761313;81;32791;-60
2024/04/21 04:40:04;;;;;;;6.65;5.92;;;;;;;;;;1753836;81;25545;-59
2024/04/21 04:42:30;;;;;;;8.60;5.50;;;;;;;;;;1729491;83;25629;-59
2024/04/21 04:44:56;;;;;;;7.95;5.42;;;;;;;;;;1761412;81;32252;-59
2024/04/21 04:47:22;;;;;;;7.22;5.72;;;;;;;;;;1753839;81;27366;-59
2024/04/21 04:49:48;;;;;;;6.22;4.60;;;;;;;;;;1729474;83;25736;-58
2024/04/21 04:52:14;;;;;;;6.40;5.58;;;;;;;;;;1761375;81;29619;-59
2024/04/21 04:54:40;;;;;;;10.08;6.22;;;;;;;;;;1753790;81;35274;-58
2024/04/21 04:57:06;;;;;;;10.98;6.10;;;;;;;;;;1729595;83;32285;-58
2024/04/21 04:59:32;;;;;;;9.30;5.17;;;;;;;;;;1761378;81;27595;-60
2024/04/21 05:01:57;;;;;;;6.28;5.67;;;;;;;;;;1753748;81;32771;-56
2024/04/21 05:04:23;;;;;;;7.78;5.78;;;;;;;;;;1729559;83;30130;-59
2024/04/21 05:06:49;;;;;;;10.75;5.75;;;;;;;;;;1761322;81;34738;-56
2024/04/21 05:09:16;;;;;;;7.87;5.50;;;;;;;;;;1753834;81;32692;-57
2024/04/21 05:11:42;;;;;;;10.90;5.92;;;;;;;;;;1729568;83;28169;-60
2024/04/21 05:14:08;;;;;;;8.55;5.65;;;;;;;;;;1761282;81;25411;-58
2024/04/21 05:16:34;;;;;;;7.75;5.60;;;;;;;;;;1753849;81;25562;-59
2024/04/21 05:19:00;;;;;;;9.83;6.12;;;;;;;;;;1729500;83;34666;-58
2024/04/21 05:21:26;;;;;;;9.93;6.17;;;;;;;;;;1761373;81;32227;-59
2024/04/21 05:23:52;;;;;;;7.08;5.67;;;;;;;;;;1753789;81;27578;-60
2024/04/21 05:26:19;;;;;;;7.05;5.65;;;;;;;;;;1729414;83;32725;-59
2024/04/21 05:28:46;;;;;;;8.75;5.95;;;;;;;;;;1761237;81;25565;-59
2024/04/21 05:31:12;;;;;;;8.25;5.55;;;;;;;;;;1753793;81;26151;-59
2024/04/21 05:33:37;;;;;;;8.30;5.80;;;;;;;;;;1729517;83;32198;-56
2024/04/21 05:36:05;;;;;;;7.70;6.03;;;;;;;;;;1761323;81;29804;-58
2024/04/21 05:38:31;;;;;;;7.87;5.65;;;;;;;;;;1753751;81;25583;-58
2024/04/21 05:40:57;;;;;;;8.45;6.72;;;;;;;;;;1729526;83;29702;-59
2024/04/21 05:43:23;;;;;;;9.73;6.53;;;;;;;;;;1761286;81;34772;-58
2024/04/21 05:46:04;;;;;;;7.78;6.35;;;;;;;;;;1753835;81;25484;-59
2024/04/21 05:48:30;;;;;;;8.08;5.58;;;;;;;;;;1729571;83;27569;-59
2024/04/21 05:50:57;;;;;;;8.45;6.12;;;;;;;;;;1761277;81;25593;-56
2024/04/21 05:53:23;;;;;;;9.25;6.40;;;;;;;;;;1761354;81;25596;-58
2024/04/21 05:55:49;;;;;;;10.00;6.12;;;;;;;;;;1753761;81;35186;-57
2024/04/21 05:58:15;;;;;;;7.72;5.60;;;;;;;;;;1729543;83;32310;-59
2024/04/21 06:00:41;;;;;;;10.30;5.90;;;;;;;;;;1761352;81;27679;-57
2024/04/21 06:03:07;;;;;;;8.30;6.35;;;;;;;;;;1753672;81;32779;-55
2024/04/21 06:05:33;;;;;;;10.32;6.50;;;;;;;;;;1729528;83;25587;-56
2024/04/21 06:07:59;;;;;;;9.90;6.35;;;;;;;;;;1761304;81;34670;-56
2024/04/21 06:10:25;;;;;;;8.55;6.78;;;;;;;;;;1753827;81;32703;-58
2024/04/21 06:12:53;;;;;;;10.72;6.00;;;;;;;;;;1729516;83;27461;-58
2024/04/21 06:15:20;;;;;;;10.08;6.55;;;;;;;;;;1761228;81;25542;-58
2024/04/21 06:17:46;;;;;;;8.80;6.67;;;;;;;;;;1753777;81;25391;-55
2024/04/21 06:20:12;;;;;;;8.53;6.30;;;;;;;;;;1729502;83;25658;-55
2024/04/21 06:22:38;;;;;;;9.63;6.80;;;;;;;;;;1761420;81;25481;-58
2024/04/21 06:25:05;;;;;;;10.50;6.75;;;;;;;;;;1753956;81;27479;-55
2024/04/21 06:27:33;;;;;;;8.40;6.62;;;;;;;;;;1761418;81;25525;-58
2024/04/21 06:29:59;;;;;;;9.53;6.37;;;;;;;;;;1753866;81;25480;-56
2024/04/21 06:32:26;;;;;;;9.18;6.87;;;;;;;;;;1729614;83;26118;-57
2024/04/21 06:34:52;;;;;;;10.93;7.12;;;;;;;;;;1761507;81;25386;-59
2024/04/21 06:37:18;;;;;;;10.30;7.45;;;;;;;;;;1761454;81;27897;-57
2024/04/21 06:39:44;;;;;;;10.32;7.10;;;;;;;;;;1753839;81;32782;-59
2024/04/21 06:42:10;;;;;;;10.00;6.45;;;;;;;;;;1729657;83;25428;-59
2024/04/21 06:44:38;;;;;;;10.82;7.08;;;;;;;;;;1761409;81;34832;-59
2024/04/21 06:47:05;;;;;;;8.23;6.78;;;;;;;;;;1753987;81;25415;-59
2024/04/21 06:49:36;;;;;;;8.83;6.75;;;;;;;;;;1761478;81;27535;-60
2024/04/21 06:51:59;;;;;;;7.60;6.47;;;;;;;;;;1753211;81;25542;-59
2024/04/21 06:54:25;;;;;;;10.70;6.25;;;;;;;;;;1729650;83;29732;-60
2024/04/21 06:56:51;;;;;;;11.05;6.97;;;;;;;;;;1761454;81;34675;-57
2024/04/21 06:59:17;;;;;;;11.00;6.87;;;;;;;;;;1753947;81;32307;-58
2024/04/21 07:01:43;;;;;;;21.10;7.85;;;;;;;;;;1729639;83;28109;-60
2024/04/21 07:04:09;;;;;;;11.18;6.80;;;;;;;;;;1761363;81;33122;-57
2024/04/21 07:06:35;;;;;;;10.55;7.85;;;;;;;;;;1753914;81;29688;-58
2024/04/21 07:09:01;;;;;;;10.82;7.10;;;;;;;;;;1729606;83;25603;-59
2024/04/21 07:11:27;;;;;;;13.08;8.13;;;;;;;;;;1761483;81;25595;-59
2024/04/21 07:13:53;;;;;;;12.73;7.42;;;;;;;;;;1753909;81;27515;-58
2024/04/21 07:16:19;;;;;;;11.63;7.37;;;;;;;;;;1729543;83;32760;-59
2024/04/21 07:18:45;;;;;;;9.20;7.67;;;;;;;;;;1761440;81;29680;-56
2024/04/21 07:21:11;;;;;;;11.05;7.58;;;;;;;;;;1753854;81;34722;-58
2024/04/21 07:23:37;;;;;;;9.95;7.67;;;;;;;;;;1729608;83;25465;-58
2024/04/21 07:26:03;;;;;;;12.20;8.28;;;;;;;;;;1761444;81;28166;-59
2024/04/21 07:28:29;;;;;;;11.68;8.80;;;;;;;;;;1753809;81;25808;-59
2024/04/21 07:30:55;;;;;;;14.43;8.95;;;;;;;;;;1715847;83;28852;-59
2024/04/21 07:33:23;;;;;;;13.45;9.00;;;;;;;;;;1746647;82;34621;-57
2024/04/21 07:35:49;;;;;;;12.53;8.53;;;;;;;;;;1746982;82;25618;-59
2024/04/21 07:38:15;;;;;;;13.22;9.08;;;;;;;;;;1746960;81;27313;-59
2024/04/21 07:40:41;;;;;;;10.70;7.10;;;;;;;;;;1727416;83;32673;-59
2024/04/21 07:43:08;;;;;;;14.25;9.58;;;;;;;;;;1746648;82;29683;-58
2024/04/21 07:45:34;;;;;;;16.40;9.75;;;;;;;;;;1715361;83;25589;-61
2024/04/21 07:48:01;;;;;;;14.78;10.20;;;;;;;;;;1746657;82;32794;-62
2024/04/21 07:50:28;;;;;;;19.02;10.93;;;;;;;;;;1746968;82;27896;-62
2024/04/21 07:52:54;;;;;;;12.63;9.83;;;;;;;;;;1746538;82;25543;-61
2024/04/21 07:55:20;;;;;;;16.45;10.25;;;;;;;;;;1746547;82;29897;-60
2024/04/21 07:57:46;;;;;;;14.15;9.53;;;;;;;;;;1745564;81;35308;-60
2024/04/21 08:00:13;;;;;;;41.23;27.40;;;;;;;;;;1746953;82;32186;-61
2024/04/21 08:02:39;;;;;;;20.30;13.58;;;;;;;;;;1746689;82;27569;-61
2024/04/21 08:05:05;;;;;;;16.57;10.75;;;;;;;;;;1746552;82;32880;-63
2024/04/21 08:07:32;;;;;;;15.13;10.30;;;;;;;;;;1746933;81;25574;-61
2024/04/21 08:09:57;;;;;;;14.35;9.18;;;;;;;;;;1746613;82;25637;-60
2024/04/21 08:12:24;;;;;;;12.65;9.18;;;;;;;;;;1746682;82;25522;-61
2024/04/21 08:14:49;;;;;;;16.23;10.38;;;;;;;;;;1746897;82;27501;-61
2024/04/21 08:17:15;;;;;;;12.30;8.98;;;;;;;;;;1746590;82;32827;-60
2024/04/21 08:19:42;;;;;;;11.33;8.45;;;;;;;;;;1746651;82;30037;-60
2024/04/21 08:22:08;;;;;;;13.78;7.90;;;;;;;;;;1746894;82;26160;-62
2024/04/21 08:24:36;;;;;;;11.40;7.33;;;;;;;;;;1746910;82;25550;-59
2024/04/21 08:27:03;;;;;;;15.40;7.47;;;;;;;;;;1727411;83;27557;-58
2024/04/21 08:29:29;;;;;;;10.70;6.78;;;;;;;;;;1747576;81;25467;-59
2024/04/21 08:31:55;;;;;;;9.20;6.65;;;;;;;;;;1720233;83;29729;-58
2024/04/21 08:34:22;;;;;;;81.85;75.57;;;;;;;;;;1751675;81;26106;-58
2024/04/21 08:36:49;;;;;;;80.07;74.45;;;;;;;;;;1751729;81;25658;-57
2024/04/21 08:39:15;;;;;;;80.12;74.53;;;;;;;;;;1739244;82;27483;-57
2024/04/21 08:41:41;;;;;;;77.42;72.08;;;;;;;;;;1751581;81;27224;-57
2024/04/21 08:44:12;;;;;;;78.52;73.07;;;;;;;;;;1751678;81;25558;-56
2024/04/21 08:46:39;;;;;;;79.55;73.97;;;;;;;;;;1739225;82;25622;-57
2024/04/21 08:49:06;;;;;;;79.58;73.97;;;;;;;;;;1751718;81;25658;-58
2024/04/21 08:51:36;;;;;;;79.77;74.10;;;;;;;;;;1751705;81;27563;-59
2024/04/21 08:54:03;;;;;;;77.70;72.40;;;;;;;;;;1739150;82;25550;-58
2024/04/21 08:56:31;;;;;;;74.03;68.67;;;;;;;;;;1739163;82;25443;-59
2024/04/21 08:58:58;;;;;;;5.78;4.53;;;;;;;;;;1751818;81;26241;-56
2024/04/21 09:01:26;;;;;;;8.23;6.12;;;;;;;;;;1751756;81;25605;-58
2024/04/21 09:03:53;;;;;;;15.60;12.88;;;;;;;;;;1739200;82;27835;-56
2024/04/21 09:06:26;;;;;;;25.77;20.62;;;;;;;;;;1751593;81;25608;-60
2024/04/21 09:08:53;;;;;;;13.85;7.22;;;;;;;;;;1751723;81;25541;-60
2024/04/21 09:11:20;;;;;;;11.28;7.35;;;;;;;;;;1739189;82;25517;-59
2024/04/21 09:13:46;;;;;;;10.15;6.60;;;;;;;;;;1739217;82;25451;-60
2024/04/21 09:16:12;;;;;;;10.25;6.72;;;;;;;;;;1739229;82;27487;-59
2024/04/21 09:18:38;;;;;;;11.43;6.80;;;;;;;;;;1739127;82;27228;-59
2024/04/21 09:21:05;;;;;;;8.00;6.87;;;;;;;;;;1739260;82;29701;-59
2024/04/21 09:23:31;;;;;;;8.35;6.60;;;;;;;;;;1739157;82;25500;-60
2024/04/21 09:25:57;;;;;;;9.75;6.62;;;;;;;;;;1739267;82;32292;-60
2024/04/21 09:28:24;;;;;;;8.13;6.15;;;;;;;;;;1739232;82;27491;-58
2024/04/21 09:30:51;;;;;;;7.78;6.37;;;;;;;;;;1748404;81;27093;-59
2024/04/21 09:33:17;;;;;;;10.30;6.28;;;;;;;;;;1729532;83;25609;-57
2024/04/21 09:35:43;;;;;;;9.08;6.37;;;;;;;;;;1761297;81;25682;-56
2024/04/21 09:38:09;;;;;;;7.72;6.03;;;;;;;;;;1761337;81;32223;-57
2024/04/21 09:40:36;;;;;;;10.13;6.78;;;;;;;;;;1753825;81;28144;-58
2024/04/21 09:43:05;;;;;;;8.43;6.15;;;;;;;;;;1729438;83;25652;-58
2024/04/21 09:45:32;;;;;;;6.75;5.15;;;;;;;;;;1760916;81;25522;-58
2024/04/21 09:48:01;;;;;;;6.80;5.85;;;;;;;;;;1729506;83;25509;-58
2024/04/21 09:50:27;;;;;;;;;;;;;;;;;;1764022;81;25402;-58
2024/04/21 09:52:53;;;;;;;10.08;6.35;;;;;;;;;;1753759;81;27487;-59
2024/04/21 09:55:20;;;;;;;8.93;6.40;;;;;;;;;;1729470;83;33147;-61
2024/04/21 09:57:50;;;;;;;47.13;33.38;;;;;;;;;;1761536;81;25392;-58
2024/04/21 10:00:18;;;;;;;64.85;50.40;;;;;;;;;;1761260;81;25565;-59
2024/04/21 10:02:47;;;;;;;16.70;12.58;;;;;;;;;;1753866;81;25540;-64
2024/04/21 10:05:15;;;;;;;8.68;6.37;;;;;;;;;;1761472;81;27533;-64
2024/04/21 10:07:43;;;;;;;8.60;5.85;;;;;;;;;;1761480;81;25754;-64
2024/04/21 10:10:12;;;;;;;7.22;5.62;;;;;;;;;;1753972;81;25455;-61
2024/04/21 10:12:39;;;;;;;10.13;6.10;;;;;;;;;;1761618;81;25734;-61
2024/04/21 10:15:07;;;;;;;7.08;5.40;;;;;;;;;;1754033;81;25593;-63
2024/04/21 10:17:34;;;;;;;7.92;5.67;;;;;;;;;;1761505;81;28167;-61
2024/04/21 10:20:05;;;;;;;9.60;5.60;;;;;;;;;;1753872;81;25552;-62
2024/04/21 10:22:33;;;;;;;7.35;5.30;;;;;;;;;;1729770;83;25639;-61
2024/04/21 10:25:05;;;;;;;8.33;5.62;;;;;;;;;;1760901;81;25534;-61
2024/04/21 10:27:31;;;;;;;9.90;5.90;;;;;;;;;;1761553;81;25607;-60
2024/04/21 10:29:58;;;;;;;7.55;5.70;;;;;;;;;;1761452;81;27540;-59
2024/04/21 10:32:26;;;;;;;8.45;5.78;;;;;;;;;;1753952;81;25696;-58
2024/04/21 10:34:55;;;;;;;6.90;5.40;;;;;;;;;;1729659;83;25426;-60
2024/04/21 10:37:25;;;;;;;8.73;6.10;;;;;;;;;;1761596;81;25501;-59
2024/04/21 10:40:01;;;;;;;6.78;5.30;;;;;;;;;;1753969;81;25609;-59
2024/04/21 10:42:33;;;;;;;6.00;5.25;;;;;;;;;;1727542;83;27601;-60
2024/04/21 10:45:00;;;;;;;7.78;5.40;;;;;;;;;;1761405;81;25551;-60
2024/04/21 10:47:29;;;;;;;8.40;5.85;;;;;;;;;;1753948;81;25471;-59
2024/04/21 10:49:56;;;;;;;9.23;5.95;;;;;;;;;;1729768;83;25579;-60
2024/04/21 10:52:22;;;;;;;7.30;5.58;;;;;;;;;;1761522;81;25468;-60
2024/04/21 10:54:49;;;;;;;8.98;6.55;;;;;;;;;;1753953;81;27745;-60
2024/04/21 10:57:15;;;;;;;10.40;5.60;;;;;;;;;;1761396;81;25683;-59
2024/04/21 10:59:44;;;;;;;10.25;6.08;;;;;;;;;;1753940;81;25531;-58
2024/04/21 11:02:10;;;;;;;7.20;5.28;;;;;;;;;;1729756;83;25503;-60
2024/04/21 11:04:37;;;;;;;8.90;6.05;;;;;;;;;;1761445;81;32726;-60
2024/04/21 11:07:03;;;;;;;7.30;5.70;;;;;;;;;;1753915;81;28084;-59
2024/04/21 11:09:30;;;;;;;9.80;5.65;;;;;;;;;;1761359;81;25428;-58
2024/04/21 11:11:57;;;;;;;9.33;5.55;;;;;;;;;;1753916;81;25420;-60
2024/04/21 11:14:25;;;;;;;7.95;5.60;;;;;;;;;;1729680;83;25631;-60
2024/04/21 11:16:53;;;;;;;6.35;5.28;;;;;;;;;;1761479;81;25564;-59
2024/04/21 11:19:21;;;;;;;7.97;5.60;;;;;;;;;;1753974;81;27498;-61
2024/04/21 11:21:48;;;;;;;8.75;5.50;;;;;;;;;;1761357;81;25734;-60
2024/04/21 11:24:16;;;;;;;8.18;5.95;;;;;;;;;;1753916;81;25404;-61
2024/04/21 11:26:42;;;;;;;9.75;5.60;;;;;;;;;;1761428;81;25548;-64
2024/04/21 11:29:08;;;;;;;7.28;5.22;;;;;;;;;;1753949;81;32316;-61
2024/04/21 11:31:35;;;;;;;7.78;5.20;;;;;;;;;;1729503;83;27106;-62
2024/04/21 11:34:04;;;;;;;8.20;5.92;;;;;;;;;;1761382;81;25451;-60
2024/04/21 11:36:33;;;;;;;8.50;5.42;;;;;;;;;;1728612;81;25546;-61
2024/04/21 11:38:59;;;;;;;27.27;18.77;;;;;;;;;;1761422;81;25533;-64
2024/04/21 11:41:25;;;;;;;32.28;25.48;;;;;;;;;;1761529;81;25411;-64
2024/04/21 11:43:52;;;;;;;7.08;5.55;;;;;;;;;;1753842;81;27869;-63
2024/04/21 11:46:19;;;;;;;8.33;5.85;;;;;;;;;;1761305;81;25700;-62
2024/04/21 11:48:55;;;;;;;7.28;4.95;;;;;;;;;;1753899;81;25435;-63
2024/04/21 11:51:22;;;;;;;8.15;5.83;;;;;;;;;;1761530;81;26003;-63
2024/04/21 11:53:48;;;;;;;8.20;5.58;;;;;;;;;;1753895;81;25400;-63
2024/04/21 11:56:14;;;;;;;8.10;5.60;;;;;;;;;;1729581;83;27802;-63
2024/04/21 11:58:40;;;;;;;6.55;5.20;;;;;;;;;;1761347;81;32729;-63
2024/04/21 12:01:06;;;;;;;6.95;5.10;;;;;;;;;;1761392;81;29990;-63
2024/04/21 12:03:33;;;;;;;7.10;5.15;;;;;;;;;;1753790;81;34742;-64
2024/04/21 12:06:00;;;;;;;7.22;4.72;;;;;;;;;;1733362;81;25494;-63
2024/04/21 12:08:26;;;;;;;5.70;4.87;;;;;;;;;;1753892;81;27559;-63
2024/04/21 12:10:54;;;;;;;7.22;4.85;;;;;;;;;;1729528;83;25429;-64
2024/04/21 12:13:20;;;;;;;7.30;4.20;;;;;;;;;;1761667;81;25525;-57
2024/04/21 12:15:46;;;;;;;8.45;5.12;;;;;;;;;;1753791;81;35250;-58
2024/04/21 12:18:15;;;;;;;8.08;5.30;;;;;;;;;;1729600;83;25441;-57
2024/04/21 12:20:41;;;;;;;7.83;5.08;;;;;;;;;;1761296;81;27540;-54
2024/04/21 12:23:09;;;;;;;5.90;4.60;;;;;;;;;;1753765;81;25545;-63
2024/04/21 12:25:37;;;;;;;6.80;4.45;;;;;;;;;;1761697;81;25620;-63
2024/04/21 12:28:05;;;;;;;8.58;5.17;;;;;;;;;;1753833;81;26030;-63
2024/04/21 12:30:32;;;;;;;6.47;4.92;;;;;;;;;;1729488;83;25611;-63
2024/04/21 12:32:58;;;;;;;7.50;4.87;;;;;;;;;;1761311;81;27428;-63
2024/04/21 12:35:24;;;;;;;7.47;5.03;;;;;;;;;;1753752;81;32813;-63
2024/04/21 12:37:50;;;;;;;13.80;8.50;;;;;;;;;;1729493;83;29577;-63
2024/04/21 12:40:17;;;;;;;13.40;9.50;;;;;;;;;;1761384;81;34809;-63
2024/04/21 12:42:44;;;;;;;11.83;6.70;;;;;;;;;;1761379;81;25429;-59
2024/04/21 12:46:07;;;;;;;6.78;4.22;;;;;;;8.45;75.61;100436.78;1868305;76;34724;-64
2024/04/21 12:48:33;;;;;;;6.25;4.40;;;;;;;8.45;75.57;100432.19;1824480;78;25361;-64
2024/04/21 12:51:00;;;;;;;7.42;4.40;;;;;;;8.44;74.82;100422.48;1824480;78;28077;-63
2024/04/21 12:53:26;;;;;;;6.22;4.70;;;;;;;8.39;74.15;100437.34;1824397;78;25601;-64
2024/04/21 12:55:53;;;;;;;7.00;4.40;;;;;;;8.35;74.15;100444.42;1824491;78;25360;-64
2024/04/21 12:58:20;;;;;;;8.15;5.10;;;;;;;8.29;73.77;100439.66;1824610;78;25469;-64
2024/04/21 13:00:48;;;;;;;6.22;4.50;;;;;;;8.20;73.43;100438.68;1824681;78;25382;-64
2024/04/21 13:03:15;;;;;;;6.65;4.62;;;;;;;8.09;73.35;100431.80;1824646;78;27483;-64
2024/04/21 13:05:42;;;;;;;10.05;5.10;;;;;;;8.05;73.66;100428.89;1824517;78;25434;-64
2024/04/21 13:08:09;;;;;;;6.37;4.22;;;;;;;7.98;73.69;100429.23;1824253;78;25554;-63
2024/04/21 13:10:36;;;;;;;6.53;4.60;;;;;;;7.92;73.19;100430.41;1824080;78;25736;-63
2024/04/21 13:13:04;;;;;;;5.75;4.60;;;;;;;7.86;73.27;100432.89;1824133;78;25533;-63
2024/04/21 13:15:30;;;;;;;7.67;4.97;;;;;;;7.83;72.90;100426.73;1824132;78;27466;-62
2024/04/21 13:17:56;;;;;;;8.35;4.35;;;;;;;7.80;73.23;100428.67;1824016;78;25745;-62
2024/04/21 13:20:22;;;;;;;9.80;4.78;;;;;;;7.76;73.32;100424.38;1824120;78;25532;-63
2024/04/21 13:22:48;;;;;;;5.53;4.50;;;;;;;7.76;74.03;100427.06;1824325;78;25480;-63
2024/04/21 13:25:15;;;;;;;5.50;4.47;;;;;;;7.77;74.01;100434.63;1824577;78;25371;-63
2024/04/21 13:27:41;;;;;;;5.42;4.25;;;;;;;7.74;74.35;100431.15;1785117;78;27453;-63
2024/04/21 13:30:11;;;;;;;6.78;4.95;;;;;;;7.66;74.47;100428.52;1824472;78;25367;-63
2024/04/21 13:32:37;;;;;;;7.70;4.90;;;;;;;7.64;74.42;100433.40;1824553;78;25404;-63
2024/04/21 13:35:04;;;;;;;6.45;4.50;;;;;;;7.47;74.38;100436.01;1824535;78;25449;-63
2024/04/21 13:37:30;;;;;;;6.00;4.70;;;;;;;7.41;75.15;100435.00;1824585;78;25387;-62
2024/04/21 13:39:57;;;;;;;6.92;5.10;;;;;;;7.30;75.23;100442.34;1824578;78;27520;-62
2024/04/21 13:42:23;;;;;;;8.68;4.87;;;;;;;7.21;75.51;100448.88;1824475;78;25747;-62
2024/04/21 13:44:50;;;;;;;7.65;5.03;;;;;;;7.08;75.57;100445.48;1824458;77;25401;-62
2024/04/21 13:47:16;;;;;;;6.15;4.87;;;;;;;6.99;76.31;100437.77;1824512;78;25821;-61
2024/04/21 13:49:43;;;;;;;6.95;5.22;;;;;;;6.90;76.69;100438.92;1824593;77;25412;-61
2024/04/21 13:52:09;;;;;;;7.10;4.62;;;;;;;6.80;77.19;100449.75;1824539;78;27475;-61
2024/04/21 13:54:35;;;;;;;8.50;5.47;;;;;;;6.73;77.65;100446.03;1824493;78;25394;-62
2024/04/21 13:57:02;;;;;;;6.87;4.72;;;;;;;6.68;78.07;100444.17;1824137;78;25444;-61
2024/04/21 13:59:28;;;;;;;6.83;5.67;;;;;;;6.67;78.53;100445.79;1823947;78;25876;-61
2024/04/21 14:01:55;;;;;;;7.90;5.50;;;;;;;6.66;79.25;100451.72;1824109;78;25451;-60
2024/04/21 14:04:23;;;;;;;7.92;5.60;;;;;;;6.64;79.27;100449.02;1824084;78;27520;-61
2024/04/21 14:06:49;;;;;;;7.60;5.00;;;;;;;6.59;79.58;100455.26;1824019;78;25400;-61
2024/04/21 14:09:16;;;;;;;58.80;39.95;;;;;;;6.53;79.90;100455.02;1824026;78;25486;-63
2024/04/21 14:11:42;;;;;;;24.32;17.17;;;;;;;6.52;80.33;100457.42;1823970;78;25460;-64
2024/04/21 14:14:08;;;;;;;8.75;5.60;;;;;;;6.47;80.24;100459.62;1830804;78;25424;-62